sensor_id;sensor_type;location;lat;lon;timestamp;temperature;humidity
28530;DHT22;15737;49.760;6.632;2023-03-03T00:00:48;0.20;98.10
28530;DHT22;15737;49.760;6.632;2023-03-03T00:03:17;0.20;98.20
28530;DHT22;15737;49.760;6.632;2023-03-03T00:05:43;0.20;98.20
28530;DHT22;15737;49.760;6.632;2023-03-03T00:08:09;0.50;98.10
28530;DHT22;15737;49.760;6.632;2023-03-03T00:10:35;0.40;97.70
28530;DHT22;15737;49.760;6.632;2023-03-03T00:13:01;0.40;97.80
28530;DHT22;15737;49.760;6.632;2023-03-03T00:15:28;0.30;97.90
28530;DHT22;15737;49.760;6.632;2023-03-03T00:17:54;0.20;98.30
28530;DHT22;15737;49.760;6.632;2023-03-03T00:22:51;0.30;98.80
28530;DHT22;15737;49.760;6.632;2023-03-03T00:27:52;0.10;98.80
28530;DHT22;15737;49.760;6.632;2023-03-03T00:30:23;0.20;99.00
28530;DHT22;15737;49.760;6.632;2023-03-03T00:32:50;0.20;98.80
28530;DHT22;15737;49.760;6.632;2023-03-03T00:35:31;0.10;98.80
28530;DHT22;15737;49.760;6.632;2023-03-03T00:38:18;0.00;99.10
28530;DHT22;15737;49.760;6.632;2023-03-03T00:40:45;0.00;99.40
28530;DHT22;15737;49.760;6.632;2023-03-03T00:45:45;-0.30;99.70
28530;DHT22;15737;49.760;6.632;2023-03-03T00:51:01;-0.20;99.90
28530;DHT22;15737;49.760;6.632;2023-03-03T00:53:30;-0.30;99.90
28530;DHT22;15737;49.760;6.632;2023-03-03T00:55:57;-0.30;99.90
28530;DHT22;15737;49.760;6.632;2023-03-03T00:58:24;-0.20;99.90
28530;DHT22;15737;49.760;6.632;2023-03-03T01:00:51;0.20;99.90
28530;DHT22;15737;49.760;6.632;2023-03-03T01:03:20;0.30;99.50
28530;DHT22;15737;49.760;6.632;2023-03-03T01:05:47;0.20;99.20
28530;DHT22;15737;49.760;6.632;2023-03-03T01:08:13;0.10;99.50
28530;DHT22;15737;49.760;6.632;2023-03-03T01:10:43;0.10;99.50
28530;DHT22;15737;49.760;6.632;2023-03-03T01:13:09;0.00;99.40
28530;DHT22;15737;49.760;6.632;2023-03-03T01:15:35;-0.10;99.60
28530;DHT22;15737;49.760;6.632;2023-03-03T01:18:01;-0.20;99.60
28530;DHT22;15737;49.760;6.632;2023-03-03T01:20:26;-0.40;99.90
28530;DHT22;15737;49.760;6.632;2023-03-03T01:22:52;-0.50;99.90
28530;DHT22;15737;49.760;6.632;2023-03-03T01:25:17;-0.50;99.90
28530;DHT22;15737;49.760;6.632;2023-03-03T01:27:43;-0.40;99.90
28530;DHT22;15737;49.760;6.632;2023-03-03T01:30:09;-0.30;99.90
28530;DHT22;15737;49.760;6.632;2023-03-03T01:32:34;-0.40;99.90
28530;DHT22;15737;49.760;6.632;2023-03-03T01:35:00;-0.50;99.90
28530;DHT22;15737;49.760;6.632;2023-03-03T01:37:26;-0.60;99.90
28530;DHT22;15737;49.760;6.632;2023-03-03T01:39:52;-0.70;99.90
28530;DHT22;15737;49.760;6.632;2023-03-03T01:42:18;-0.80;99.90
28530;DHT22;15737;49.760;6.632;2023-03-03T01:44:44;-0.90;99.90
28530;DHT22;15737;49.760;6.632;2023-03-03T01:47:19;-1.00;99.90
28530;DHT22;15737;49.760;6.632;2023-03-03T01:49:50;-0.90;99.90
28530;DHT22;15737;49.760;6.632;2023-03-03T01:52:33;-0.80;99.90
28530;DHT22;15737;49.760;6.632;2023-03-03T01:55:42;-0.50;99.90
28530;DHT22;15737;49.760;6.632;2023-03-03T01:58:08;-0.40;99.90
28530;DHT22;15737;49.760;6.632;2023-03-03T02:00:37;-0.50;99.90
28530;DHT22;15737;49.760;6.632;2023-03-03T02:03:06;-0.70;99.90
28530;DHT22;15737;49.760;6.632;2023-03-03T02:05:32;-0.50;99.90
28530;DHT22;15737;49.760;6.632;2023-03-03T02:07:59;-0.30;99.90
28530;DHT22;15737;49.760;6.632;2023-03-03T02:10:25;-0.10;99.90
28530;DHT22;15737;49.760;6.632;2023-03-03T02:12:57;0.10;99.90
28530;DHT22;15737;49.760;6.632;2023-03-03T02:15:28;0.30;99.90
28530;DHT22;15737;49.760;6.632;2023-03-03T02:17:58;0.40;99.90
28530;DHT22;15737;49.760;6.632;2023-03-03T02:26:24;-0.20;99.90
28530;DHT22;15737;49.760;6.632;2023-03-03T02:28:50;-0.50;99.90
28530;DHT22;15737;49.760;6.632;2023-03-03T02:31:18;-0.80;99.90
28530;DHT22;15737;49.760;6.632;2023-03-03T02:33:47;-1.00;99.90
28530;DHT22;15737;49.760;6.632;2023-03-03T02:36:25;-1.10;99.90
28530;DHT22;15737;49.760;6.632;2023-03-03T02:38:58;-1.20;99.90
28530;DHT22;15737;49.760;6.632;2023-03-03T02:44:18;-1.30;99.90
28530;DHT22;15737;49.760;6.632;2023-03-03T02:46:45;-1.10;99.90
28530;DHT22;15737;49.760;6.632;2023-03-03T02:49:14;-0.80;99.90
28530;DHT22;15737;49.760;6.632;2023-03-03T02:51:41;-0.40;99.90
28530;DHT22;15737;49.760;6.632;2023-03-03T02:54:08;-0.10;99.90
28530;DHT22;15737;49.760;6.632;2023-03-03T02:56:34;0.00;99.90
28530;DHT22;15737;49.760;6.632;2023-03-03T02:59:00;-0.30;99.90
28530;DHT22;15737;49.760;6.632;2023-03-03T03:01:26;-0.60;99.90
28530;DHT22;15737;49.760;6.632;2023-03-03T03:03:51;-0.90;99.90
28530;DHT22;15737;49.760;6.632;2023-03-03T03:06:17;-1.00;99.90
28530;DHT22;15737;49.760;6.632;2023-03-03T03:08:42;-1.20;99.90
28530;DHT22;15737;49.760;6.632;2023-03-03T03:11:08;-1.40;99.90
28530;DHT22;15737;49.760;6.632;2023-03-03T03:13:34;-1.50;99.90
28530;DHT22;15737;49.760;6.632;2023-03-03T03:16:00;-1.60;99.90
28530;DHT22;15737;49.760;6.632;2023-03-03T03:18:26;-1.60;99.90
28530;DHT22;15737;49.760;6.632;2023-03-03T03:20:51;-1.70;99.90
28530;DHT22;15737;49.760;6.632;2023-03-03T03:23:17;-1.70;99.90
28530;DHT22;15737;49.760;6.632;2023-03-03T03:25:43;-1.70;99.90
28530;DHT22;15737;49.760;6.632;2023-03-03T03:28:12;-1.50;99.90
28530;DHT22;15737;49.760;6.632;2023-03-03T03:30:39;-1.10;99.90
28530;DHT22;15737;49.760;6.632;2023-03-03T03:33:05;-0.90;99.90
28530;DHT22;15737;49.760;6.632;2023-03-03T03:35:32;-0.80;99.90
28530;DHT22;15737;49.760;6.632;2023-03-03T03:37:58;-0.80;99.90
28530;DHT22;15737;49.760;6.632;2023-03-03T03:40:23;-0.80;99.90
28530;DHT22;15737;49.760;6.632;2023-03-03T03:42:51;-0.90;99.90
28530;DHT22;15737;49.760;6.632;2023-03-03T03:45:17;-1.10;99.90
28530;DHT22;15737;49.760;6.632;2023-03-03T03:47:42;-1.20;99.90
28530;DHT22;15737;49.760;6.632;2023-03-03T03:50:08;-1.40;99.90
28530;DHT22;15737;49.760;6.632;2023-03-03T03:52:34;-1.60;99.90
28530;DHT22;15737;49.760;6.632;2023-03-03T03:55:00;-1.70;99.90
28530;DHT22;15737;49.760;6.632;2023-03-03T03:57:26;-1.80;99.90
28530;DHT22;15737;49.760;6.632;2023-03-03T03:59:51;-1.80;99.90
28530;DHT22;15737;49.760;6.632;2023-03-03T04:02:20;-1.90;99.90
28530;DHT22;15737;49.760;6.632;2023-03-03T04:04:45;-1.80;99.90
28530;DHT22;15737;49.760;6.632;2023-03-03T04:07:11;-1.60;99.90
28530;DHT22;15737;49.760;6.632;2023-03-03T04:09:36;-1.20;99.90
28530;DHT22;15737;49.760;6.632;2023-03-03T04:12:02;-1.40;99.90
28530;DHT22;15737;49.760;6.632;2023-03-03T04:14:28;-1.40;99.90
28530;DHT22;15737;49.760;6.632;2023-03-03T04:16:53;-1.30;99.90
28530;DHT22;15737;49.760;6.632;2023-03-03T04:19:19;-1.20;99.90
28530;DHT22;15737;49.760;6.632;2023-03-03T04:21:44;-1.30;99.90
28530;DHT22;15737;49.760;6.632;2023-03-03T04:24:10;-1.10;99.90
28530;DHT22;15737;49.760;6.632;2023-03-03T04:26:35;-1.00;99.90
28530;DHT22;15737;49.760;6.632;2023-03-03T04:29:01;-1.00;99.90
28530;DHT22;15737;49.760;6.632;2023-03-03T04:31:26;-1.00;99.90
28530;DHT22;15737;49.760;6.632;2023-03-03T04:33:52;-1.10;99.90
28530;DHT22;15737;49.760;6.632;2023-03-03T04:36:19;-1.40;99.90
28530;DHT22;15737;49.760;6.632;2023-03-03T04:38:45;-1.60;99.90
28530;DHT22;15737;49.760;6.632;2023-03-03T04:41:10;-1.70;99.90
28530;DHT22;15737;49.760;6.632;2023-03-03T04:43:36;-1.50;99.90
28530;DHT22;15737;49.760;6.632;2023-03-03T04:46:02;-1.30;99.90
28530;DHT22;15737;49.760;6.632;2023-03-03T04:48:27;-1.00;99.90
28530;DHT22;15737;49.760;6.632;2023-03-03T04:50:53;-0.80;99.90
28530;DHT22;15737;49.760;6.632;2023-03-03T04:55:52;-0.60;99.90
28530;DHT22;15737;49.760;6.632;2023-03-03T04:58:18;-0.60;99.90
28530;DHT22;15737;49.760;6.632;2023-03-03T05:00:45;-0.80;99.90
28530;DHT22;15737;49.760;6.632;2023-03-03T05:03:11;-1.10;99.90
28530;DHT22;15737;49.760;6.632;2023-03-03T05:05:38;-1.40;99.90
28530;DHT22;15737;49.760;6.632;2023-03-03T05:08:04;-1.60;99.90
28530;DHT22;15737;49.760;6.632;2023-03-03T05:10:30;-1.60;99.90
28530;DHT22;15737;49.760;6.632;2023-03-03T05:12:55;-1.80;99.90
28530;DHT22;15737;49.760;6.632;2023-03-03T05:15:21;-2.00;99.90
28530;DHT22;15737;49.760;6.632;2023-03-03T05:17:46;-2.10;99.90
28530;DHT22;15737;49.760;6.632;2023-03-03T05:20:12;-1.90;99.90
28530;DHT22;15737;49.760;6.632;2023-03-03T05:22:38;-1.80;99.90
28530;DHT22;15737;49.760;6.632;2023-03-03T05:25:04;-1.80;99.90
28530;DHT22;15737;49.760;6.632;2023-03-03T05:27:29;-1.90;99.90
28530;DHT22;15737;49.760;6.632;2023-03-03T05:29:55;-1.90;99.90
28530;DHT22;15737;49.760;6.632;2023-03-03T05:32:21;-2.00;99.90
28530;DHT22;15737;49.760;6.632;2023-03-03T05:34:46;-1.90;99.90
28530;DHT22;15737;49.760;6.632;2023-03-03T05:37:12;-1.70;99.90
28530;DHT22;15737;49.760;6.632;2023-03-03T05:39:37;-1.40;99.90
28530;DHT22;15737;49.760;6.632;2023-03-03T05:42:03;-1.20;99.90
28530;DHT22;15737;49.760;6.632;2023-03-03T05:44:29;-1.10;99.90
28530;DHT22;15737;49.760;6.632;2023-03-03T05:46:54;-1.10;99.90
28530;DHT22;15737;49.760;6.632;2023-03-03T05:49:21;-1.20;99.90
28530;DHT22;15737;49.760;6.632;2023-03-03T05:51:47;-1.40;99.90
28530;DHT22;15737;49.760;6.632;2023-03-03T05:54:13;-1.50;99.90
28530;DHT22;15737;49.760;6.632;2023-03-03T05:56:38;-1.70;99.90
28530;DHT22;15737;49.760;6.632;2023-03-03T05:59:04;-1.80;99.90
28530;DHT22;15737;49.760;6.632;2023-03-03T06:01:29;-1.90;99.90
28530;DHT22;15737;49.760;6.632;2023-03-03T06:03:55;-2.00;99.90
28530;DHT22;15737;49.760;6.632;2023-03-03T06:06:20;-2.00;99.90
28530;DHT22;15737;49.760;6.632;2023-03-03T06:08:46;-2.00;99.90
28530;DHT22;15737;49.760;6.632;2023-03-03T06:11:11;-2.20;99.90
28530;DHT22;15737;49.760;6.632;2023-03-03T06:13:38;-2.30;99.90
28530;DHT22;15737;49.760;6.632;2023-03-03T06:16:05;-2.40;99.90
28530;DHT22;15737;49.760;6.632;2023-03-03T06:18:31;-2.30;99.90
28530;DHT22;15737;49.760;6.632;2023-03-03T06:20:56;-2.10;99.90
28530;DHT22;15737;49.760;6.632;2023-03-03T06:23:22;-1.70;99.90
28530;DHT22;15737;49.760;6.632;2023-03-03T06:25:47;-1.50;99.90
28530;DHT22;15737;49.760;6.632;2023-03-03T06:28:14;-1.50;99.90
28530;DHT22;15737;49.760;6.632;2023-03-03T06:30:39;-1.40;99.90
28530;DHT22;15737;49.760;6.632;2023-03-03T06:33:05;-0.90;99.90
28530;DHT22;15737;49.760;6.632;2023-03-03T06:35:30;-0.40;99.90
28530;DHT22;15737;49.760;6.632;2023-03-03T06:37:56;0.10;99.90
28530;DHT22;15737;49.760;6.632;2023-03-03T06:40:21;0.80;99.90
28530;DHT22;15737;49.760;6.632;2023-03-03T06:42:47;1.50;99.90
28530;DHT22;15737;49.760;6.632;2023-03-03T06:45:13;2.40;99.90
28530;DHT22;15737;49.760;6.632;2023-03-03T06:47:38;3.40;99.90
28530;DHT22;15737;49.760;6.632;2023-03-03T06:50:05;4.50;98.90
28530;DHT22;15737;49.760;6.632;2023-03-03T06:52:30;5.50;97.10
28530;DHT22;15737;49.760;6.632;2023-03-03T06:55:01;6.30;95.20
28530;DHT22;15737;49.760;6.632;2023-03-03T06:57:34;6.90;93.50
28530;DHT22;15737;49.760;6.632;2023-03-03T07:02:35;8.40;90.70
28530;DHT22;15737;49.760;6.632;2023-03-03T07:05:01;9.20;88.80
28530;DHT22;15737;49.760;6.632;2023-03-03T07:07:30;9.90;85.70
28530;DHT22;15737;49.760;6.632;2023-03-03T07:09:56;10.60;81.50
28530;DHT22;15737;49.760;6.632;2023-03-03T07:12:25;10.30;79.60
28530;DHT22;15737;49.760;6.632;2023-03-03T07:17:46;9.50;82.70
28530;DHT22;15737;49.760;6.632;2023-03-03T07:20:20;9.70;82.70
28530;DHT22;15737;49.760;6.632;2023-03-03T07:22:45;10.40;80.30
28530;DHT22;15737;49.760;6.632;2023-03-03T07:25:28;11.40;78.40
28530;DHT22;15737;49.760;6.632;2023-03-03T07:30:27;14.60;70.80
28530;DHT22;15737;49.760;6.632;2023-03-03T07:32:55;15.90;66.80
28530;DHT22;15737;49.760;6.632;2023-03-03T07:35:42;16.40;62.80
28530;DHT22;15737;49.760;6.632;2023-03-03T07:38:27;16.60;61.80
28530;DHT22;15737;49.760;6.632;2023-03-03T07:40:56;17.20;60.10
28530;DHT22;15737;49.760;6.632;2023-03-03T07:43:41;18.30;57.70
28530;DHT22;15737;49.760;6.632;2023-03-03T07:46:15;19.00;55.60
28530;DHT22;15737;49.760;6.632;2023-03-03T07:48:44;19.50;54.80
28530;DHT22;15737;49.760;6.632;2023-03-03T07:53:53;19.90;54.10
28530;DHT22;15737;49.760;6.632;2023-03-03T07:56:29;20.10;53.00
28530;DHT22;15737;49.760;6.632;2023-03-03T07:58:57;20.80;52.10
28530;DHT22;15737;49.760;6.632;2023-03-03T08:04:40;19.90;50.70
28530;DHT22;15737;49.760;6.632;2023-03-03T08:07:13;18.80;52.20
28530;DHT22;15737;49.760;6.632;2023-03-03T08:09:57;19.40;51.60
28530;DHT22;15737;49.760;6.632;2023-03-03T08:12:38;18.60;51.40
28530;DHT22;15737;49.760;6.632;2023-03-03T08:15:20;19.00;50.80
28530;DHT22;15737;49.760;6.632;2023-03-03T08:17:47;18.60;49.90
28530;DHT22;15737;49.760;6.632;2023-03-03T08:20:41;18.10;50.30
28530;DHT22;15737;49.760;6.632;2023-03-03T08:23:09;17.70;50.70
28530;DHT22;15737;49.760;6.632;2023-03-03T08:25:34;17.30;50.20
28530;DHT22;15737;49.760;6.632;2023-03-03T08:28:00;16.50;50.00
28530;DHT22;15737;49.760;6.632;2023-03-03T08:30:25;16.10;51.10
28530;DHT22;15737;49.760;6.632;2023-03-03T08:32:51;16.20;50.60
28530;DHT22;15737;49.760;6.632;2023-03-03T08:35:16;16.30;50.50
28530;DHT22;15737;49.760;6.632;2023-03-03T08:37:42;16.90;50.10
28530;DHT22;15737;49.760;6.632;2023-03-03T08:40:08;18.00;49.40
28530;DHT22;15737;49.760;6.632;2023-03-03T08:42:33;19.10;48.40
28530;DHT22;15737;49.760;6.632;2023-03-03T08:44:59;19.60;47.70
28530;DHT22;15737;49.760;6.632;2023-03-03T08:47:24;19.80;47.40
28530;DHT22;15737;49.760;6.632;2023-03-03T08:49:50;19.90;47.70
28530;DHT22;15737;49.760;6.632;2023-03-03T08:52:16;20.30;47.30
28530;DHT22;15737;49.760;6.632;2023-03-03T08:54:41;20.70;47.10
28530;DHT22;15737;49.760;6.632;2023-03-03T08:57:07;20.60;46.90
28530;DHT22;15737;49.760;6.632;2023-03-03T08:59:32;19.90;47.20
28530;DHT22;15737;49.760;6.632;2023-03-03T09:02:02;19.20;47.60
28530;DHT22;15737;49.760;6.632;2023-03-03T09:04:27;19.00;48.20
28530;DHT22;15737;49.760;6.632;2023-03-03T09:06:53;19.00;47.90
28530;DHT22;15737;49.760;6.632;2023-03-03T09:09:19;19.00;47.90
28530;DHT22;15737;49.760;6.632;2023-03-03T09:11:44;18.50;48.60
28530;DHT22;15737;49.760;6.632;2023-03-03T09:14:14;19.30;48.10
28530;DHT22;15737;49.760;6.632;2023-03-03T09:16:46;19.40;47.30
28530;DHT22;15737;49.760;6.632;2023-03-03T09:19:28;19.00;47.70
28530;DHT22;15737;49.760;6.632;2023-03-03T09:21:56;19.00;47.40
28530;DHT22;15737;49.760;6.632;2023-03-03T09:24:27;18.90;47.50
28530;DHT22;15737;49.760;6.632;2023-03-03T09:26:54;19.00;47.00
28530;DHT22;15737;49.760;6.632;2023-03-03T09:29:25;18.50;47.40
28530;DHT22;15737;49.760;6.632;2023-03-03T09:31:55;18.50;47.70
28530;DHT22;15737;49.760;6.632;2023-03-03T09:37:21;17.60;48.20
28530;DHT22;15737;49.760;6.632;2023-03-03T09:39:50;17.50;48.20
28530;DHT22;15737;49.760;6.632;2023-03-03T09:45:36;17.60;48.70
28530;DHT22;15737;49.760;6.632;2023-03-03T09:48:28;18.10;48.00
28530;DHT22;15737;49.760;6.632;2023-03-03T09:58:48;20.10;47.00
28530;DHT22;15737;49.760;6.632;2023-03-03T10:03:58;19.50;47.30
28530;DHT22;15737;49.760;6.632;2023-03-03T10:06:35;19.50;47.40
28530;DHT22;15737;49.760;6.632;2023-03-03T10:09:19;19.20;47.50
28530;DHT22;15737;49.760;6.632;2023-03-03T10:12:08;18.80;48.20
28530;DHT22;15737;49.760;6.632;2023-03-03T10:14:40;18.90;47.90
28530;DHT22;15737;49.760;6.632;2023-03-03T10:17:56;18.20;48.10
28530;DHT22;15737;49.760;6.632;2023-03-03T10:21:10;17.90;48.90
28530;DHT22;15737;49.760;6.632;2023-03-03T10:23:52;18.20;48.50
28530;DHT22;15737;49.760;6.632;2023-03-03T10:26:30;18.30;48.80
28530;DHT22;15737;49.760;6.632;2023-03-03T10:29:04;18.50;48.80
28530;DHT22;15737;49.760;6.632;2023-03-03T10:34:51;19.20;48.00
28530;DHT22;15737;49.760;6.632;2023-03-03T10:40:23;19.40;47.90
28530;DHT22;15737;49.760;6.632;2023-03-03T10:43:10;19.70;48.20
28530;DHT22;15737;49.760;6.632;2023-03-03T10:46:21;19.90;47.50
28530;DHT22;15737;49.760;6.632;2023-03-03T10:49:05;19.60;47.80
28530;DHT22;15737;49.760;6.632;2023-03-03T10:52:03;19.20;48.60
28530;DHT22;15737;49.760;6.632;2023-03-03T11:05:23;18.30;49.50
28530;DHT22;15737;49.760;6.632;2023-03-03T11:08:00;18.20;49.40
28530;DHT22;15737;49.760;6.632;2023-03-03T11:13:37;18.50;49.40
28530;DHT22;15737;49.760;6.632;2023-03-03T11:22:28;18.30;49.50
28530;DHT22;15737;49.760;6.632;2023-03-03T11:25:20;18.10;49.60
28530;DHT22;15737;49.760;6.632;2023-03-03T11:28:13;17.90;49.40
28530;DHT22;15737;49.760;6.632;2023-03-03T11:34:00;17.30;50.60
28530;DHT22;15737;49.760;6.632;2023-03-03T11:39:19;18.50;49.60
28530;DHT22;15737;49.760;6.632;2023-03-03T11:44:42;18.30;49.70
28530;DHT22;15737;49.760;6.632;2023-03-03T11:47:26;17.30;50.10
28530;DHT22;15737;49.760;6.632;2023-03-03T11:50:03;16.80;51.20
28530;DHT22;15737;49.760;6.632;2023-03-03T12:05:49;18.80;49.30
28530;DHT22;15737;49.760;6.632;2023-03-03T12:08:28;18.70;49.40
28530;DHT22;15737;49.760;6.632;2023-03-03T12:11:20;18.90;49.40
28530;DHT22;15737;49.760;6.632;2023-03-03T12:19:17;18.60;49.30
28530;DHT22;15737;49.760;6.632;2023-03-03T12:21:57;18.60;49.00
28530;DHT22;15737;49.760;6.632;2023-03-03T12:24:50;18.00;49.80
28530;DHT22;15737;49.760;6.632;2023-03-03T12:27:34;18.50;49.80
28530;DHT22;15737;49.760;6.632;2023-03-03T12:33:36;18.50;48.90
28530;DHT22;15737;49.760;6.632;2023-03-03T12:36:39;18.30;49.20
28530;DHT22;15737;49.760;6.632;2023-03-03T12:47:41;18.20;48.40
28530;DHT22;15737;49.760;6.632;2023-03-03T13:01:38;16.30;49.00
28530;DHT22;15737;49.760;6.632;2023-03-03T13:04:18;16.20;49.50
28530;DHT22;15737;49.760;6.632;2023-03-03T13:06:56;16.50;49.10
28530;DHT22;15737;49.760;6.632;2023-03-03T13:12:02;16.60;49.00
28530;DHT22;15737;49.760;6.632;2023-03-03T13:14:52;16.60;49.20
28530;DHT22;15737;49.760;6.632;2023-03-03T13:17:34;16.80;48.70
28530;DHT22;15737;49.760;6.632;2023-03-03T13:23:03;17.00;47.80
28530;DHT22;15737;49.760;6.632;2023-03-03T13:25:51;16.30;48.50
28530;DHT22;15737;49.760;6.632;2023-03-03T13:28:42;16.20;49.40
28530;DHT22;15737;49.760;6.632;2023-03-03T13:31:14;16.30;49.50
28530;DHT22;15737;49.760;6.632;2023-03-03T13:33:45;17.00;49.50
28530;DHT22;15737;49.760;6.632;2023-03-03T13:36:16;17.20;49.30
28530;DHT22;15737;49.760;6.632;2023-03-03T13:38:47;17.00;49.20
28530;DHT22;15737;49.760;6.632;2023-03-03T13:41:22;17.10;49.70
28530;DHT22;15737;49.760;6.632;2023-03-03T13:44:10;17.00;49.70
28530;DHT22;15737;49.760;6.632;2023-03-03T13:52:29;17.70;49.40
28530;DHT22;15737;49.760;6.632;2023-03-03T13:55:09;17.50;49.30
28530;DHT22;15737;49.760;6.632;2023-03-03T13:57:44;17.60;49.70
28530;DHT22;15737;49.760;6.632;2023-03-03T14:00:52;17.90;49.60
28530;DHT22;15737;49.760;6.632;2023-03-03T14:06:04;18.40;49.00
28530;DHT22;15737;49.760;6.632;2023-03-03T14:08:47;18.00;49.00
28530;DHT22;15737;49.760;6.632;2023-03-03T14:11:38;17.80;48.90
28530;DHT22;15737;49.760;6.632;2023-03-03T14:19:27;17.50;48.00
28530;DHT22;15737;49.760;6.632;2023-03-03T14:22:21;17.20;48.20
28530;DHT22;15737;49.760;6.632;2023-03-03T14:27:26;17.20;47.70
28530;DHT22;15737;49.760;6.632;2023-03-03T14:32:23;17.50;47.70
28530;DHT22;15737;49.760;6.632;2023-03-03T14:34:57;17.50;47.20
28530;DHT22;15737;49.760;6.632;2023-03-03T14:40:18;16.50;47.80
28530;DHT22;15737;49.760;6.632;2023-03-03T14:47:59;16.50;47.30
28530;DHT22;15737;49.760;6.632;2023-03-03T14:50:30;16.40;47.30
28530;DHT22;15737;49.760;6.632;2023-03-03T14:53:38;16.20;47.00
28530;DHT22;15737;49.760;6.632;2023-03-03T14:58:41;15.30;47.80
28530;DHT22;15737;49.760;6.632;2023-03-03T15:03:44;15.80;48.00
28530;DHT22;15737;49.760;6.632;2023-03-03T15:09:32;16.30;47.50
28530;DHT22;15737;49.760;6.632;2023-03-03T15:12:02;16.10;47.50
28530;DHT22;15737;49.760;6.632;2023-03-03T15:14:44;15.50;47.90
28530;DHT22;15737;49.760;6.632;2023-03-03T15:17:25;15.00;48.10
28530;DHT22;15737;49.760;6.632;2023-03-03T15:25:32;13.60;49.10
28530;DHT22;15737;49.760;6.632;2023-03-03T15:33:28;12.80;50.90
28530;DHT22;15737;49.760;6.632;2023-03-03T15:47:19;13.20;50.70
28530;DHT22;15737;49.760;6.632;2023-03-03T15:52:46;12.80;51.00
28530;DHT22;15737;49.760;6.632;2023-03-03T15:55:24;12.70;51.60
28530;DHT22;15737;49.760;6.632;2023-03-03T16:00:56;12.00;52.40
28530;DHT22;15737;49.760;6.632;2023-03-03T16:03:38;11.60;52.90
28530;DHT22;15737;49.760;6.632;2023-03-03T16:06:10;11.50;53.40
28530;DHT22;15737;49.760;6.632;2023-03-03T16:09:26;11.50;53.60
28530;DHT22;15737;49.760;6.632;2023-03-03T16:14:50;11.20;53.90
28530;DHT22;15737;49.760;6.632;2023-03-03T16:17:23;11.40;53.90
28530;DHT22;15737;49.760;6.632;2023-03-03T16:20:13;11.40;54.00
28530;DHT22;15737;49.760;6.632;2023-03-03T16:28:21;10.80;54.90
28530;DHT22;15737;49.760;6.632;2023-03-03T16:36:39;9.70;57.40
28530;DHT22;15737;49.760;6.632;2023-03-03T16:39:46;9.30;58.50
28530;DHT22;15737;49.760;6.632;2023-03-03T16:42:31;9.20;58.80
28530;DHT22;15737;49.760;6.632;2023-03-03T16:47:41;9.20;58.80
28530;DHT22;15737;49.760;6.632;2023-03-03T16:53:16;8.50;59.80
28530;DHT22;15737;49.760;6.632;2023-03-03T16:55:52;8.20;60.40
28530;DHT22;15737;49.760;6.632;2023-03-03T17:01:29;8.00;60.90
28530;DHT22;15737;49.760;6.632;2023-03-03T17:06:56;7.70;61.40
28530;DHT22;15737;49.760;6.632;2023-03-03T17:15:35;7.50;61.80
28530;DHT22;15737;49.760;6.632;2023-03-03T17:20:50;7.30;62.50
28530;DHT22;15737;49.760;6.632;2023-03-03T17:26:36;7.00;63.30
28530;DHT22;15737;49.760;6.632;2023-03-03T17:29:17;6.90;63.90
28530;DHT22;15737;49.760;6.632;2023-03-03T17:37:33;6.40;65.40
28530;DHT22;15737;49.760;6.632;2023-03-03T17:43:14;6.10;66.70
28530;DHT22;15737;49.760;6.632;2023-03-03T17:45:44;6.00;67.20
28530;DHT22;15737;49.760;6.632;2023-03-03T17:54:10;5.80;68.00
28530;DHT22;15737;49.760;6.632;2023-03-03T17:57:10;5.70;68.20
28530;DHT22;15737;49.760;6.632;2023-03-03T17:59:54;5.60;68.60
28530;DHT22;15737;49.760;6.632;2023-03-03T18:03:13;5.50;69.20
28530;DHT22;15737;49.760;6.632;2023-03-03T18:11:35;5.20;70.00
28530;DHT22;15737;49.760;6.632;2023-03-03T18:17:14;5.20;70.40
28530;DHT22;15737;49.760;6.632;2023-03-03T18:22:45;5.00;70.70
28530;DHT22;15737;49.760;6.632;2023-03-03T18:25:14;4.90;71.20
28530;DHT22;15737;49.760;6.632;2023-03-03T18:27:44;4.90;71.40
28530;DHT22;15737;49.760;6.632;2023-03-03T18:37:57;4.30;75.80
28530;DHT22;15737;49.760;6.632;2023-03-03T18:41:02;4.20;77.00
28530;DHT22;15737;49.760;6.632;2023-03-03T18:48:59;4.20;78.20
28530;DHT22;15737;49.760;6.632;2023-03-03T18:52:12;4.20;78.70
28530;DHT22;15737;49.760;6.632;2023-03-03T18:54:38;4.10;79.00
28530;DHT22;15737;49.760;6.632;2023-03-03T18:57:16;4.10;79.00
28530;DHT22;15737;49.760;6.632;2023-03-03T18:59:56;4.10;79.20
28530;DHT22;15737;49.760;6.632;2023-03-03T19:02:37;4.00;79.30
28530;DHT22;15737;49.760;6.632;2023-03-03T19:05:25;4.00;79.60
28530;DHT22;15737;49.760;6.632;2023-03-03T19:16:28;3.70;80.80
28530;DHT22;15737;49.760;6.632;2023-03-03T19:21:24;3.50;81.40
28530;DHT22;15737;49.760;6.632;2023-03-03T19:23:58;3.50;81.90
28530;DHT22;15737;49.760;6.632;2023-03-03T19:46:10;3.00;83.00
28530;DHT22;15737;49.760;6.632;2023-03-03T19:48:53;2.90;83.80
28530;DHT22;15737;49.760;6.632;2023-03-03T20:00:09;2.60;84.70
28530;DHT22;15737;49.760;6.632;2023-03-03T20:02:59;2.60;85.00
28530;DHT22;15737;49.760;6.632;2023-03-03T20:08:20;2.40;85.50
28530;DHT22;15737;49.760;6.632;2023-03-03T20:10:58;2.40;85.80
28530;DHT22;15737;49.760;6.632;2023-03-03T20:13:41;2.40;85.90
28530;DHT22;15737;49.760;6.632;2023-03-03T20:16:23;2.40;86.60
28530;DHT22;15737;49.760;6.632;2023-03-03T20:27:27;2.10;86.10
28530;DHT22;15737;49.760;6.632;2023-03-03T20:32:50;2.10;86.40
28530;DHT22;15737;49.760;6.632;2023-03-03T20:35:45;2.10;86.40
28530;DHT22;15737;49.760;6.632;2023-03-03T20:38:25;2.10;86.50
28530;DHT22;15737;49.760;6.632;2023-03-03T20:52:37;2.10;86.00
28530;DHT22;15737;49.760;6.632;2023-03-03T20:55:23;2.00;86.00
28530;DHT22;15737;49.760;6.632;2023-03-03T20:58:00;1.90;86.20
28530;DHT22;15737;49.760;6.632;2023-03-03T21:00:39;1.80;86.50
28530;DHT22;15737;49.760;6.632;2023-03-03T21:03:31;1.80;86.80
28530;DHT22;15737;49.760;6.632;2023-03-03T21:06:15;1.70;86.90
28530;DHT22;15737;49.760;6.632;2023-03-03T21:08:55;1.80;87.10
28530;DHT22;15737;49.760;6.632;2023-03-03T21:13:50;1.70;86.70
28530;DHT22;15737;49.760;6.632;2023-03-03T21:19:08;1.70;86.80
28530;DHT22;15737;49.760;6.632;2023-03-03T21:21:43;1.70;87.00
28530;DHT22;15737;49.760;6.632;2023-03-03T21:24:13;1.70;87.10
28530;DHT22;15737;49.760;6.632;2023-03-03T21:29:32;1.50;87.40
28530;DHT22;15737;49.760;6.632;2023-03-03T21:32:06;1.30;87.70
28530;DHT22;15737;49.760;6.632;2023-03-03T21:37:00;1.20;88.90
28530;DHT22;15737;49.760;6.632;2023-03-03T21:39:27;1.10;88.60
28530;DHT22;15737;49.760;6.632;2023-03-03T21:42:03;1.00;88.90
28530;DHT22;15737;49.760;6.632;2023-03-03T21:44:43;1.10;89.10
28530;DHT22;15737;49.760;6.632;2023-03-03T21:47:12;1.10;89.00
28530;DHT22;15737;49.760;6.632;2023-03-03T21:49:40;1.10;88.90
28530;DHT22;15737;49.760;6.632;2023-03-03T21:52:06;1.00;89.10
28530;DHT22;15737;49.760;6.632;2023-03-03T21:54:32;0.90;89.40
28530;DHT22;15737;49.760;6.632;2023-03-03T21:56:57;0.80;89.70
28530;DHT22;15737;49.760;6.632;2023-03-03T21:59:23;0.70;90.10